Time;durP1;ratioP1;P1;durP2;ratioP2;P2;SDS_P1;SDS_P2;PMS_P1;PMS_P2;Temp;Humidity;BMP_temperature;BMP_pressure;BME280_temperature;BME280_humidity;BME280_pressure;Samples;Min_cycle;Max_cycle;Signal;HPM_P1;HPM_P2
2022/05/07 00:01:19;;;;;;;;;;;;;;;16.89;45.35;101259.09;4996207;28;6819;-75
2022/05/07 00:03:46;;;;;;;;;;;;;;;16.79;45.82;101253.59;5000670;28;7309;-75
2022/05/07 00:06:12;;;;;;;;;;;;;;;16.73;46.16;101250.81;5019018;28;6824;-75
2022/05/07 00:08:38;;;;;;;;;;;;;;;16.65;46.15;101247.06;5002621;28;7054;-75
2022/05/07 00:11:03;;;;;;;;;;;;;;;16.57;46.48;101249.38;4996405;28;6887;-75
2022/05/07 00:13:29;;;;;;;;;;;;;;;16.49;46.35;101241.31;5002972;28;6807;-75
2022/05/07 00:18:39;;;;;;;;;;;;;;;16.35;47.44;101247.69;5003134;28;6967;-75
2022/05/07 00:21:05;;;;;;;;;;;;;;;16.29;47.55;101248.34;5017652;28;6910;-75
2022/05/07 00:23:30;;;;;;;;;;;;;;;16.23;47.47;101241.22;5006062;28;6792;-75
2022/05/07 00:25:56;;;;;;;;;;;;;;;16.19;47.59;101252.25;5005133;28;6967;-75
2022/05/07 00:28:22;;;;;;;;;;;;;;;16.13;48.10;101239.13;4983432;28;6958;-75
2022/05/07 00:30:48;;;;;;;;;;;;;;;16.09;48.29;101237.22;5001619;28;6828;-75
2022/05/07 00:33:13;;;;;;;;;;;;;;;16.03;48.06;101235.28;4999725;28;6883;-75
2022/05/07 00:35:39;;;;;;;;;;;;;;;15.99;47.83;101233.41;4985542;28;6951;-75
2022/05/07 00:38:05;;;;;;;;;;;;;;;15.94;48.93;101232.31;4975076;28;7057;-75
2022/05/07 00:40:30;;;;;;;;;;;;;;;15.90;48.94;101236.50;4999714;28;6858;-75
2022/05/07 00:42:56;;;;;;;;;;;;;;;15.85;48.82;101243.16;5000151;28;6788;-75
2022/05/07 00:45:22;;;;;;;;;;;;;;;15.83;48.69;101240.50;4999425;28;6887;-75
2022/05/07 00:47:48;;;;;;;;;;;;;;;15.81;48.48;101239.56;4999979;28;6787;-75
2022/05/07 00:53:00;;;;;;;;;;;;;;;15.76;48.99;101235.03;5003591;28;6896;-75
2022/05/07 00:55:29;;;;;;;;;;;;;;;15.74;48.93;101234.97;5002503;28;7428;-75
2022/05/07 00:57:55;;;;;;;;;;;;;;;15.70;48.85;101235.69;4999150;28;6887;-75
2022/05/07 01:00:21;;;;;;;;;;;;;;;15.67;48.56;101240.69;4993345;28;6982;-75
2022/05/07 01:02:47;;;;;;;;;;;;;;;15.65;48.93;101237.19;5000593;28;6871;-75
2022/05/07 01:05:13;;;;;;;;;;;;;;;15.62;49.18;101237.94;4994403;28;6959;-75
2022/05/07 01:07:42;;;;;;;;;;;;;;;15.61;49.39;101238.75;5002460;28;6800;-75
2022/05/07 01:10:08;;;;;;;;;;;;;;;15.56;48.86;101235.13;4995996;28;6828;-75
2022/05/07 01:12:35;;;;;;;;;;;;;;;15.53;48.98;101237.56;5011729;28;6958;-75
2022/05/07 01:15:01;;;;;;;;;;;;;;;15.51;49.29;101228.88;4999182;28;6896;-75
2022/05/07 01:17:26;;;;;;;;;;;;;;;15.51;49.55;101223.69;5002335;28;7111;-75
2022/05/07 01:19:55;;;;;;;;;;;;;;;15.51;48.98;101222.00;4995277;28;7908;-75
2022/05/07 01:22:22;;;;;;;;;;;;;;;15.52;49.69;101216.03;5001797;28;6804;-75
2022/05/07 01:24:48;;;;;;;;;;;;;;;15.52;49.19;101216.03;4989949;28;6876;-75
2022/05/07 01:27:13;;;;;;;;;;;;;;;15.52;49.59;101215.13;5002299;28;7164;-75
2022/05/07 01:29:39;;;;;;;;;;;;;;;15.55;48.81;101218.72;4996967;28;7002;-75
2022/05/07 01:32:05;;;;;;;;;;;;;;;15.56;49.44;101217.03;4997637;28;6961;-75
2022/05/07 01:34:31;;;;;;;;;;;;;;;15.57;49.23;101211.03;4996891;28;7362;-75
2022/05/07 01:36:56;;;;;;;;;;;;;;;15.59;49.45;101221.41;4994935;28;6807;-75
2022/05/07 01:39:22;;;;;;;;;;;;;;;15.59;49.46;101201.66;4997614;28;6808;-75
2022/05/07 01:41:48;;;;;;;;;;;;;;;15.60;49.71;101211.16;4979114;28;8609;-75
2022/05/07 01:44:13;;;;;;;;;;;;;;;15.61;49.27;101202.59;5013359;28;6923;-75
2022/05/07 01:49:23;;;;;;;;;;;;;;;15.62;49.61;101211.22;4994577;28;6895;-75
2022/05/07 01:51:49;;;;;;;;;;;;;;;15.61;49.44;101210.34;4999612;28;7840;-75
2022/05/07 01:54:14;;;;;;;;;;;;;;;15.60;49.25;101213.75;4999083;28;6890;-75
2022/05/07 01:56:40;;;;;;;;;;;;;;;15.62;49.18;101206.91;5002739;28;6795;-75
2022/05/07 01:59:06;;;;;;;;;;;;;;;15.65;49.24;101206.19;4995033;28;6957;-75
2022/05/07 02:01:31;;;;;;;;;;;;;;;15.68;50.19;101204.59;4998404;28;6800;-75
2022/05/07 02:03:57;;;;;;;;;;;;;;;15.72;49.44;101209.88;4979170;28;7242;-75
2022/05/07 02:06:23;;;;;;;;;;;;;;;15.75;49.37;101207.44;4998450;28;6799;-75
2022/05/07 02:08:48;;;;;;;;;;;;;;;15.79;49.00;101209.31;5001737;28;6788;-75
2022/05/07 02:11:14;;;;;;;;;;;;;;;15.85;49.31;101206.09;4998072;28;6792;-75
2022/05/07 02:13:40;;;;;;;;;;;;;;;15.90;49.69;101212.31;4976783;28;6863;-75
2022/05/07 02:16:06;;;;;;;;;;;;;;;15.95;49.40;101206.53;4997463;28;6795;-75
2022/05/07 02:18:31;;;;;;;;;;;;;;;16.03;48.90;101208.53;4998060;28;7397;-75
2022/05/07 02:20:57;;;;;;;;;;;;;;;16.09;49.47;101209.66;4996756;28;6796;-75
2022/05/07 02:23:22;;;;;;;;;;;;;;;16.16;49.03;101209.88;5001578;28;8240;-75
2022/05/07 02:25:48;;;;;;;;;;;;;;;16.22;48.75;101205.84;5001301;28;7852;-75
2022/05/07 02:28:14;;;;;;;;;;;;;;;16.28;49.24;101200.00;4993955;28;6961;-75
2022/05/07 02:30:41;;;;;;;;;;;;;;;16.34;48.89;101201.94;4999469;28;7021;-75
2022/05/07 02:33:06;;;;;;;;;;;;;;;16.41;49.21;101201.31;5001099;28;7022;-75
2022/05/07 02:35:32;;;;;;;;;;;;;;;16.46;49.06;101198.91;4995919;28;7401;-75
2022/05/07 02:37:58;;;;;;;;;;;;;;;16.51;49.17;101208.63;4999301;28;6779;-75
2022/05/07 02:40:24;;;;;;;;;;;;;;;16.58;49.02;101203.66;4979869;28;7051;-76
2022/05/07 02:42:49;;;;;;;;;;;;;;;16.63;48.72;101200.41;4978900;28;6886;-76
2022/05/07 02:45:15;;;;;;;;;;;;;;;16.68;48.81;101195.38;5001625;28;7282;-76
2022/05/07 02:47:43;;;;;;;;;;;;;;;16.73;48.66;101195.56;5005954;28;6949;-76
2022/05/07 02:50:17;;;;;;;;;;;;;;;16.77;48.47;101193.13;4990336;28;6800;-76
2022/05/07 02:52:43;;;;;;;;;;;;;;;16.83;48.34;101197.63;5014103;28;7038;-75
2022/05/07 02:55:10;;;;;;;;;;;;;;;16.86;48.54;101190.00;5012972;28;6788;-75
2022/05/07 02:57:36;;;;;;;;;;;;;;;16.93;47.92;101193.69;4993062;28;7892;-75
2022/05/07 03:00:04;;;;;;;;;;;;;;;16.93;48.28;101191.94;5018242;28;6784;-73
2022/05/07 03:02:31;;;;;;;;;;;;;;;16.94;48.01;101190.25;4998087;28;6804;-73
2022/05/07 03:04:57;;;;;;;;;;;;;;;16.94;47.97;101192.84;5016840;28;6959;-73
2022/05/07 03:07:23;;;;;;;;;;;;;;;16.93;48.02;101191.94;4975129;28;7097;-72
2022/05/07 03:09:49;;;;;;;;;;;;;;;16.91;47.80;101193.63;5017660;28;6791;-72
2022/05/07 03:12:15;;;;;;;;;;;;;;;16.90;47.98;101190.97;5014382;28;7179;-72
2022/05/07 03:14:41;;;;;;;;;;;;;;;16.87;47.99;101184.00;4980950;28;6955;-72
2022/05/07 03:17:07;;;;;;;;;;;;;;;16.86;48.05;101183.94;5017279;28;6772;-72
2022/05/07 03:19:32;;;;;;;;;;;;;;;16.82;48.00;101182.06;5015867;28;6892;-72
2022/05/07 03:21:58;;;;;;;;;;;;;;;16.77;48.28;101176.72;5015466;28;6911;-72
2022/05/07 03:24:24;;;;;;;;;;;;;;;16.74;48.29;101182.69;5031476;28;6887;-72
2022/05/07 03:26:49;;;;;;;;;;;;;;;16.69;48.38;101176.44;4994158;28;6984;-72
2022/05/07 03:29:15;;;;;;;;;;;;;;;16.63;48.27;101178.84;5016275;28;6791;-72
2022/05/07 03:31:41;;;;;;;;;;;;;;;16.59;48.06;101188.19;5004850;28;6784;-72
2022/05/07 03:34:07;;;;;;;;;;;;;;;16.54;48.24;101183.69;5029833;28;7070;-72
2022/05/07 03:36:33;;;;;;;;;;;;;;;16.49;48.25;101184.38;5017610;28;8067;-72
2022/05/07 03:38:58;;;;;;;;;;;;;;;16.44;47.87;101180.75;4994663;28;6800;-72
2022/05/07 03:41:24;;;;;;;;;;;;;;;16.41;48.21;101179.75;4998783;28;7321;-72
2022/05/07 03:43:50;;;;;;;;;;;;;;;16.36;47.91;101177.00;5007741;28;6788;-72
2022/05/07 03:46:16;;;;;;;;;;;;;;;16.32;48.48;101180.28;4994179;28;6978;-72
2022/05/07 03:48:41;;;;;;;;;;;;;;;16.28;48.46;101176.72;5013423;28;6945;-72
2022/05/07 03:51:07;;;;;;;;;;;;;;;16.26;48.75;101180.09;5012090;28;7171;-72
2022/05/07 03:53:35;;;;;;;;;;;;;;;16.23;48.87;101181.75;5025654;28;6820;-72
2022/05/07 03:56:04;;;;;;;;;;;;;;;16.23;48.67;101186.00;4997660;28;6972;-72
2022/05/07 03:58:30;;;;;;;;;;;;;;;16.20;48.67;101184.19;5012514;28;6808;-72
2022/05/07 04:00:58;;;;;;;;;;;;;;;16.20;48.25;101189.34;5008173;28;7062;-72
2022/05/07 04:03:26;;;;;;;;;;;;;;;16.18;48.48;101193.59;4996809;28;8083;-72
2022/05/07 04:05:52;;;;;;;;;;;;;;;16.16;48.50;101178.84;5006627;28;6800;-72
2022/05/07 04:08:18;;;;;;;;;;;;;;;16.14;48.34;101194.31;5014133;28;7286;-72
2022/05/07 04:10:44;;;;;;;;;;;;;;;16.13;48.41;101187.38;5014519;28;6804;-73
2022/05/07 04:13:12;;;;;;;;;;;;;;;16.14;48.46;101191.75;4991663;28;6812;-73
2022/05/07 04:15:39;;;;;;;;;;;;;;;16.12;48.61;101193.34;5024311;28;7651;-73
2022/05/07 04:18:07;;;;;;;;;;;;;;;16.13;48.49;101196.84;5007922;28;6883;-74
2022/05/07 04:20:34;;;;;;;;;;;;;;;16.11;48.88;101201.94;5000112;28;6879;-74
2022/05/07 04:23:01;;;;;;;;;;;;;;;16.11;48.81;101199.34;4992083;28;6986;-74
2022/05/07 04:25:27;;;;;;;;;;;;;;;16.13;48.99;101199.44;4998269;28;6795;-74
2022/05/07 04:27:53;;;;;;;;;;;;;;;16.14;48.89;101202.09;4996615;28;6886;-74
2022/05/07 04:30:23;;;;;;;;;;;;;;;16.15;48.88;101200.34;5008050;28;7210;-74
2022/05/07 04:32:50;;;;;;;;;;;;;;;16.18;48.86;101201.34;5000049;28;6819;-74
2022/05/07 04:35:17;;;;;;;;;;;;;;;16.22;48.51;101208.44;4999335;28;6804;-74
2022/05/07 04:37:42;;;;;;;;;;;;;;;16.28;49.20;101215.53;4997751;28;7072;-74
2022/05/07 04:40:09;;;;;;;;;;;;;;;16.32;48.66;101200.97;4996441;28;6875;-74
2022/05/07 04:42:37;;;;;;;;;;;;;;;16.37;49.35;101207.22;4976569;28;6820;-74
2022/05/07 04:45:06;;;;;;;;;;;;;;;16.40;49.00;101204.75;4983695;28;6808;-74
2022/05/07 04:47:32;;;;;;;;;;;;;;;16.47;48.98;101209.31;4986406;28;6811;-74
2022/05/07 04:49:58;;;;;;;;;;;;;;;16.55;49.04;101209.59;4995554;28;6856;-74
2022/05/07 04:52:24;;;;;;;;;;;;;;;16.61;48.78;101207.25;4974961;28;7130;-74
2022/05/07 04:54:50;;;;;;;;;;;;;;;16.66;48.67;101213.47;4994181;28;6964;-74
2022/05/07 04:57:16;;;;;;;;;;;;;;;16.72;48.51;101210.22;5000433;28;6815;-74
2022/05/07 04:59:41;;;;;;;;;;;;;;;16.79;48.41;101216.50;5001347;28;6799;-73
2022/05/07 05:02:07;;;;;;;;;;;;;;;16.84;48.71;101206.31;4995345;28;6792;-74
2022/05/07 05:04:33;;;;;;;;;;;;;;;16.89;48.53;101212.50;5004000;28;6883;-74
2022/05/07 05:06:58;;;;;;;;;;;;;;;16.95;48.19;101210.13;5020822;28;7843;-74
2022/05/07 05:09:24;;;;;;;;;;;;;;;17.00;48.52;101207.72;4999493;28;6972;-74
2022/05/07 05:11:50;;;;;;;;;;;;;;;17.05;48.20;101212.25;5004257;28;7146;-74
2022/05/07 05:17:00;;;;;;;;;;;;;;;17.18;48.16;101217.84;5001592;28;6977;-74
2022/05/07 05:19:25;;;;;;;;;;;;;;;17.28;48.26;101222.50;4999062;28;8557;-74
2022/05/07 05:21:51;;;;;;;;;;;;;;;17.42;48.39;101222.09;4978729;28;7222;-74
2022/05/07 05:24:17;;;;;;;;;;;;;;;17.55;47.98;101211.28;4998915;28;6870;-74
2022/05/07 05:26:42;;;;;;;;;;;;;;;17.67;47.90;101217.69;4998498;28;7102;-74
2022/05/07 05:29:08;;;;;;;;;;;;;;;17.75;47.54;101211.94;5006888;28;6910;-74
2022/05/07 05:31:34;;;;;;;;;;;;;;;17.85;47.16;101218.25;4998064;28;7836;-73
2022/05/07 05:34:00;;;;;;;;;;;;;;;17.95;46.86;101213.38;4975334;28;6982;-74
2022/05/07 05:36:30;;;;;;;;;;;;;;;18.03;46.83;101212.81;4993877;28;6811;-74
2022/05/07 05:38:56;;;;;;;;;;;;;;;18.13;46.92;101224.34;5003217;28;6811;-74
2022/05/07 05:41:21;;;;;;;;;;;;;;;18.24;46.72;101229.84;4999561;28;8023;-74
2022/05/07 05:43:47;;;;;;;;;;;;;;;18.39;46.19;101236.31;5001889;28;7936;-74
2022/05/07 05:46:15;;;;;;;;;;;;;;;18.52;46.75;101232.34;5002570;28;6796;-74
2022/05/07 05:48:41;;;;;;;;;;;;;;;18.62;46.52;101236.97;4999307;28;6854;-74
2022/05/07 05:51:07;;;;;;;;;;;;;;;18.70;46.25;101227.69;4984449;28;6792;-74
2022/05/07 05:53:34;;;;;;;;;;;;;;;18.80;45.78;101227.94;4989850;28;7177;-74
2022/05/07 05:56:00;;;;;;;;;;;;;;;18.88;46.17;101237.72;4980808;28;6903;-76
2022/05/07 05:58:33;;;;;;;;;;;;;;;18.98;45.63;101225.84;5002168;28;6832;-76
2022/05/07 06:01:06;;;;;;;;;;;;;;;19.07;45.85;101221.75;4985938;28;6994;-76
2022/05/07 06:03:31;;;;;;;;;;;;;;;19.16;45.49;101227.19;5000017;28;6966;-76
2022/05/07 06:05:57;;;;;;;;;;;;;;;19.25;45.64;101226.53;5000537;28;6788;-74
2022/05/07 06:08:22;;;;;;;;;;;;;;;19.35;45.47;101233.72;4998020;28;6815;-74
2022/05/07 06:10:52;;;;;;;;;;;;;;;19.47;44.76;101238.34;4999916;28;6807;-74
2022/05/07 06:13:18;;;;;;;;;;;;;;;19.62;45.23;101232.66;5013702;28;7526;-74
2022/05/07 06:15:45;;;;;;;;;;;;;;;19.78;45.14;101235.63;4993228;28;7174;-74
2022/05/07 06:18:11;;;;;;;;;;;;;;;19.96;44.62;101238.69;5006120;28;6958;-74
2022/05/07 06:20:37;;;;;;;;;;;;;;;20.14;44.27;101236.44;5009215;28;7113;-74
2022/05/07 06:23:03;;;;;;;;;;;;;;;20.30;43.87;101237.66;5005626;28;6875;-74
2022/05/07 06:28:13;;;;;;;;;;;;;;;20.61;43.71;101246.09;5000659;28;6947;-74
2022/05/07 06:30:39;;;;;;;;;;;;;;;20.75;43.17;101243.75;4997738;28;6804;-74
2022/05/07 06:33:05;;;;;;;;;;;;;;;20.90;43.29;101251.00;4996124;28;6804;-74
2022/05/07 06:35:30;;;;;;;;;;;;;;;20.99;43.00;101248.56;5005117;28;7058;-74
2022/05/07 06:37:56;;;;;;;;;;;;;;;21.06;42.68;101257.41;4988535;28;6779;-74
2022/05/07 06:40:22;;;;;;;;;;;;;;;21.09;42.71;101247.88;5011337;28;6913;-74
2022/05/07 06:42:48;;;;;;;;;;;;;;;21.15;42.54;101256.69;5014116;28;6863;-75
2022/05/07 06:45:14;;;;;;;;;;;;;;;21.21;42.39;101252.44;4994332;28;7029;-75
2022/05/07 06:47:39;;;;;;;;;;;;;;;21.30;42.41;101261.28;4985509;28;6779;-75
2022/05/07 06:50:06;;;;;;;;;;;;;;;21.35;42.32;101255.28;5003586;28;6780;-74
2022/05/07 06:52:31;;;;;;;;;;;;;;;21.38;41.94;101257.09;4998379;28;6819;-74
2022/05/07 06:54:57;;;;;;;;;;;;;;;21.40;41.75;101255.38;5001301;28;6859;-75
2022/05/07 06:57:25;;;;;;;;;;;;;;;21.44;41.74;101259.81;5001836;28;7134;-75
2022/05/07 06:59:52;;;;;;;;;;;;;;;21.49;41.49;101260.75;4998410;28;7026;-75
2022/05/07 07:02:18;;;;;;;;;;;;;;;21.53;41.46;101259.06;4997750;28;6800;-75
2022/05/07 07:04:43;;;;;;;;;;;;;;;21.56;41.64;101256.50;4991688;28;7302;-75
2022/05/07 07:07:09;;;;;;;;;;;;;;;21.59;41.63;101258.28;5002923;28;6788;-75
2022/05/07 07:09:35;;;;;;;;;;;;;;;21.64;41.86;101260.13;4985321;28;6855;-75
2022/05/07 07:12:01;;;;;;;;;;;;;;;21.67;41.62;101251.50;4997231;28;6788;-75
2022/05/07 07:14:27;;;;;;;;;;;;;;;21.71;41.59;101260.25;5000277;28;7086;-75
2022/05/07 07:16:53;;;;;;;;;;;;;;;21.75;41.04;101260.31;4977114;28;6808;-75
2022/05/07 07:19:19;;;;;;;;;;;;;;;21.77;41.44;101256.00;4992843;28;6827;-75
2022/05/07 07:21:45;;;;;;;;;;;;;;;21.88;41.70;101264.00;4995305;28;7129;-74
2022/05/07 07:24:11;;;;;;;;;;;;;;;21.97;41.21;101260.63;4993852;28;7681;-74
2022/05/07 07:26:37;;;;;;;;;;;;;;;22.03;41.23;101265.97;4993910;28;6791;-74
2022/05/07 07:29:03;;;;;;;;;;;;;;;22.05;41.02;101261.63;5005327;28;6856;-74
2022/05/07 07:31:29;;;;;;;;;;;;;;;22.05;40.92;101258.13;4989244;28;7515;-74
2022/05/07 07:33:54;;;;;;;;;;;;;;;22.10;41.25;101266.03;5004677;28;7313;-74
2022/05/07 07:36:20;;;;;;;;;;;;;;;22.14;40.93;101262.63;5013805;28;6791;-75
2022/05/07 07:38:46;;;;;;;;;;;;;;;22.19;40.94;101260.94;5018922;28;7142;-74
2022/05/07 07:41:11;;;;;;;;;;;;;;;22.26;40.84;101262.78;5020631;28;6788;-75
2022/05/07 07:43:39;;;;;;;;;;;;;;;22.36;41.07;101255.06;5015771;28;7164;-75
2022/05/07 07:48:49;;;;;;;;;;;;;;;22.60;40.84;101258.03;5021161;28;7044;-75
2022/05/07 07:51:15;;;;;;;;;;;;;;;22.71;40.38;101254.66;5003287;28;6806;-75
2022/05/07 07:53:42;;;;;;;;;;;;;;;22.82;40.39;101255.63;5006436;28;6855;-75
2022/05/07 07:56:08;;;;;;;;;;;;;;;22.99;40.70;101260.19;4975632;28;8492;-75
2022/05/07 07:58:35;;;;;;;;;;;;;;;23.24;40.45;101255.16;4994891;28;6996;-75
2022/05/07 08:01:01;;;;;;;;;;;;;;;23.48;40.24;101259.75;4976914;28;7209;-77
2022/05/07 08:03:26;;;;;;;;;;;;;;;23.69;39.70;101256.44;4978635;28;8008;-76
2022/05/07 08:05:53;;;;;;;;;;;;;;;23.91;39.86;101253.09;5002472;28;6796;-76
2022/05/07 08:13:53;;;;;;;;;;;;;;;24.13;38.21;101256.72;5000374;28;6812;-77
2022/05/07 08:16:20;;;;;;;;;;;;;;;24.18;38.27;101257.63;5000625;28;6820;-77
2022/05/07 08:18:47;;;;;;;;;;;;;;;24.23;38.55;101266.38;4970926;28;7366;-77
2022/05/07 08:21:13;;;;;;;;;;;;;;;24.26;37.80;101266.41;5003476;28;6976;-77
2022/05/07 08:23:40;;;;;;;;;;;;;;;24.34;38.25;101266.44;5005089;28;8089;-77
2022/05/07 08:26:08;;;;;;;;;;;;;;;24.42;38.00;101266.47;4996690;28;6803;-77
2022/05/07 08:28:36;;;;;;;;;;;;;;;24.53;37.89;101269.13;5001678;28;7143;-77
2022/05/07 08:31:03;;;;;;;;;;;;;;;24.65;38.10;101268.31;5000656;28;6831;-76
2022/05/07 08:33:31;;;;;;;;;;;;;;;24.78;37.17;101271.88;5003577;28;6883;-76
2022/05/07 08:35:58;;;;;;;;;;;;;;;24.92;37.89;101269.28;4983003;28;6875;-76
2022/05/07 08:38:24;;;;;;;;;;;;;;;25.06;37.44;101270.19;5002416;28;6800;-76
2022/05/07 08:40:51;;;;;;;;;;;;;;;25.15;36.96;101263.19;4989068;28;7030;-77
2022/05/07 08:43:17;;;;;;;;;;;;;;;25.22;36.55;101264.97;4966130;28;7208;-77
2022/05/07 08:45:44;;;;;;;;;;;;;;;25.28;36.24;101264.94;4966588;28;7274;-77
2022/05/07 08:48:11;;;;;;;;;;;;;;;25.37;36.84;101270.19;4995200;28;6958;-77
2022/05/07 08:50:39;;;;;;;;;;;;;;;25.45;35.85;101261.44;5001012;28;7046;-77
2022/05/07 08:53:05;;;;;;;;;;;;;;;25.55;36.64;101263.22;4996898;28;7888;-77
2022/05/07 08:55:31;;;;;;;;;;;;;;;25.75;36.59;101259.72;4982599;28;6808;-77
2022/05/07 08:57:57;;;;;;;;;;;;;;;26.08;36.05;101263.16;5005277;28;6787;-78
2022/05/07 09:00:26;;;;;;;;;;;;;;;26.56;35.95;101259.50;5001083;28;6812;-76
2022/05/07 09:03:01;;;;;;;;;;;;;;;27.10;35.22;101256.56;4987975;28;8841;-76
2022/05/07 09:05:39;;;;;;;;;;;;;;;27.58;34.49;101256.16;4998320;28;7117;-76
2022/05/07 09:08:07;;;;;;;;;;;;;;;27.90;33.94;101258.47;4976299;28;7447;-76
2022/05/07 09:10:38;;;;;;;;;;;;;;;28.16;34.11;101254.69;4983027;28;7213;-76
2022/05/07 09:13:10;;;;;;;;;;;;;;;28.35;33.66;101248.31;5000932;28;7319;-76
2022/05/07 09:15:47;;;;;;;;;;;;;;;28.40;33.16;101254.44;5002878;28;6828;-76
2022/05/07 09:18:16;;;;;;;;;;;;;;;28.39;33.15;101254.44;5001691;28;7303;-76
2022/05/07 09:20:42;;;;;;;;;;;;;;;28.37;32.68;101259.72;4998906;28;6808;-76
2022/05/07 09:23:10;;;;;;;;;;;;;;;28.38;32.88;101256.19;4960839;28;6982;-76
2022/05/07 09:25:45;;;;;;;;;;;;;;;28.34;32.65;101254.50;4999781;28;6804;-76
2022/05/07 09:28:11;;;;;;;;;;;;;;;28.31;32.46;101254.53;5004023;28;7407;-76
2022/05/07 09:30:38;;;;;;;;;;;;;;;28.28;33.01;101249.28;4994442;28;6866;-76
2022/05/07 09:33:06;;;;;;;;;;;;;;;28.29;32.46;101256.31;5013360;28;6799;-76
2022/05/07 09:35:47;;;;;;;;;;;;;;;28.34;32.47;101248.34;4993162;28;6882;-76
2022/05/07 09:38:15;;;;;;;;;;;;;;;28.43;32.70;101242.94;4993755;28;8313;-76
2022/05/07 09:40:43;;;;;;;;;;;;;;;28.55;32.69;101242.81;4998911;28;6978;-76
2022/05/07 09:43:12;;;;;;;;;;;;;;;28.82;31.90;101248.56;4996712;28;6879;-76
2022/05/07 09:45:40;;;;;;;;;;;;;;;28.94;31.88;101242.25;5004364;28;6784;-76
2022/05/07 09:48:08;;;;;;;;;;;;;;;28.91;31.54;101244.94;4980609;28;7270;-76
2022/05/07 09:58:39;;;;;;;;;;;;;;;28.65;32.15;101238.25;5000282;28;6899;-76
2022/05/07 10:01:25;;;;;;;;;;;;;;;28.79;31.78;101234.56;5002490;28;6908;-76
2022/05/07 10:04:24;;;;;;;;;;;;;;;29.05;31.79;101234.19;5001366;28;6824;-76
2022/05/07 10:07:34;;;;;;;;;;;;;;;29.48;31.07;101243.16;5015448;28;6907;-76
2022/05/07 10:10:27;;;;;;;;;;;;;;;29.92;31.04;101229.13;4996782;28;7219;-76
2022/05/07 10:12:58;;;;;;;;;;;;;;;30.12;31.08;101233.16;4988068;28;6999;-76
2022/05/07 10:15:25;;;;;;;;;;;;;;;30.23;30.80;101235.59;4998188;28;6824;-76
2022/05/07 10:18:03;;;;;;;;;;;;;;;30.34;30.19;101223.88;5004213;28;7011;-76
2022/05/07 10:20:49;;;;;;;;;;;;;;;30.43;30.60;101229.88;5002188;28;6883;-76
2022/05/07 10:23:30;;;;;;;;;;;;;;;30.66;30.31;101220.56;5003608;28;6804;-76
2022/05/07 10:25:58;;;;;;;;;;;;;;;30.93;30.30;101223.47;4977006;28;6816;-76
2022/05/07 10:28:38;;;;;;;;;;;;;;;31.23;30.05;101226.25;4985486;28;7195;-76
2022/05/07 10:31:15;;;;;;;;;;;;;;;31.54;29.56;101214.88;5002190;28;7061;-76
2022/05/07 10:33:41;;;;;;;;;;;;;;;31.65;28.91;101217.25;4997064;28;7063;-76
2022/05/07 10:36:11;;;;;;;;;;;;;;;31.50;29.31;101221.19;4990752;28;7813;-76
2022/05/07 10:38:39;;;;;;;;;;;;;;;31.23;29.15;101215.66;4973730;28;7065;-76
2022/05/07 10:41:11;;;;;;;;;;;;;;;30.96;28.77;101218.97;5001321;28;6887;-76
2022/05/07 10:43:59;;;;;;;;;;;;;;;30.76;28.89;101217.69;5004474;28;7187;-76
2022/05/07 10:46:25;;;;;;;;;;;;;;;30.63;29.13;101224.13;4987501;28;6811;-76
2022/05/07 10:48:59;;;;;;;;;;;;;;;30.43;29.80;101224.59;5001006;28;6848;-76
2022/05/07 10:51:50;;;;;;;;;;;;;;;30.35;29.64;101214.16;5001325;28;6890;-76
2022/05/07 10:54:23;;;;;;;;;;;;;;;30.55;30.14;101213.72;4993217;28;6807;-76
2022/05/07 10:56:55;;;;;;;;;;;;;;;31.17;29.35;101214.91;5000929;28;9963;-76
2022/05/07 10:59:24;;;;;;;;;;;;;;;31.98;29.36;101204.84;5002095;28;7028;-76
2022/05/07 11:01:50;;;;;;;;;;;;;;;32.96;28.27;101201.00;5003802;28;6796;-76
2022/05/07 11:04:22;;;;;;;;;;;;;;;33.83;27.63;101195.31;5003134;28;6822;-76
2022/05/07 11:06:53;;;;;;;;;;;;;;;34.68;26.60;101193.84;4986532;28;6808;-76
2022/05/07 11:09:24;;;;;;;;;;;;;;;35.23;26.02;101189.78;4996880;28;6816;-76
2022/05/07 11:11:54;;;;;;;;;;;;;;;35.63;25.45;101188.94;5004546;28;6816;-76
2022/05/07 11:14:25;;;;;;;;;;;;;;;35.69;25.18;101183.34;4998656;28;8326;-76
2022/05/07 11:16:53;;;;;;;;;;;;;;;35.92;25.02;101181.41;4992099;28;6823;-77
2022/05/07 11:19:35;;;;;;;;;;;;;;;36.35;25.11;101190.06;4992837;28;6904;-77
2022/05/07 11:22:06;;;;;;;;;;;;;;;36.63;24.28;101187.88;4989345;28;7006;-78
2022/05/07 11:24:32;;;;;;;;;;;;;;;36.62;23.96;101176.34;4987349;28;7813;-77
2022/05/07 11:27:05;;;;;;;;;;;;;;;36.25;23.35;101172.78;4960373;28;7217;-77
2022/05/07 11:29:33;;;;;;;;;;;;;;;35.89;24.30;101182.44;4977615;28;7387;-77
2022/05/07 11:32:08;;;;;;;;;;;;;;;35.57;24.11;101182.97;4978531;28;6820;-77
2022/05/07 11:34:39;;;;;;;;;;;;;;;35.26;23.92;101184.34;4986278;28;6808;-77
2022/05/07 11:37:17;;;;;;;;;;;;;;;34.82;24.30;101179.06;4984257;28;7285;-77
2022/05/07 11:39:59;;;;;;;;;;;;;;;34.46;24.80;101185.84;5007336;28;7019;-75
2022/05/07 11:42:35;;;;;;;;;;;;;;;34.23;24.70;101181.44;5001710;28;6992;-75
2022/05/07 11:45:27;;;;;;;;;;;;;;;34.02;25.03;101184.84;5003832;28;6982;-75
2022/05/07 11:48:02;;;;;;;;;;;;;;;33.81;25.13;101181.22;4988889;28;7229;-75
2022/05/07 11:50:41;;;;;;;;;;;;;;;33.58;25.13;101182.06;4989594;28;8050;-75
2022/05/07 11:53:15;;;;;;;;;;;;;;;33.34;24.98;101181.97;4997606;28;6816;-75
2022/05/07 11:55:44;;;;;;;;;;;;;;;33.13;24.95;101180.94;4982149;28;7002;-74
2022/05/07 11:58:22;;;;;;;;;;;;;;;33.21;24.85;101176.22;5001767;28;8021;-75
2022/05/07 12:00:50;;;;;;;;;;;;;;;33.56;24.83;101171.50;5002033;28;6972;-74
2022/05/07 12:03:25;;;;;;;;;;;;;;;33.99;24.56;101163.69;4978268;28;7210;-75
2022/05/07 12:05:56;;;;;;;;;;;;;;;34.43;23.80;101165.53;4981432;28;7235;-75
2022/05/07 12:08:30;;;;;;;;;;;;;;;34.89;23.58;101161.94;4998491;28;7215;-75
2022/05/07 12:10:56;;;;;;;;;;;;;;;35.21;23.22;101159.69;5001592;28;7184;-75
2022/05/07 12:13:24;;;;;;;;;;;;;;;35.41;22.94;101156.13;5013543;28;6835;-75
2022/05/07 12:18:38;;;;;;;;;;;;;;;35.75;22.57;101153.75;5004073;28;7251;-75
2022/05/07 12:21:04;;;;;;;;;;;;;;;35.92;22.30;101144.06;4998300;28;6808;-75
2022/05/07 12:31:43;;;;;;;;;;;;;;;35.82;21.84;101138.34;5001599;28;7995;-75
2022/05/07 12:34:08;;;;;;;;;;;;;;;35.84;21.32;101121.34;5003219;28;6872;-75
2022/05/07 12:36:34;;;;;;;;;;;;;;;35.80;20.95;101129.53;4999069;28;6898;-75
2022/05/07 12:39:00;;;;;;;;;;;;;;;35.73;21.22;101129.81;4994151;28;6787;-75
2022/05/07 12:41:26;;;;;;;;;;;;;;;35.69;21.40;101127.38;5001576;28;6875;-74
2022/05/07 12:43:58;;;;;;;;;;;;;;;35.51;21.40;101129.91;4996986;28;6812;-75
2022/05/07 12:46:25;;;;;;;;;;;;;;;35.37;21.70;101132.38;4992596;28;7995;-75
2022/05/07 12:48:52;;;;;;;;;;;;;;;35.46;22.35;101129.28;4996719;28;9812;-75
2022/05/07 12:51:19;;;;;;;;;;;;;;;35.65;21.77;101125.81;4999692;28;6831;-75
2022/05/07 12:53:44;;;;;;;;;;;;;;;35.98;21.50;101125.13;4989336;28;7169;-75
2022/05/07 12:56:10;;;;;;;;;;;;;;;36.22;21.11;101122.25;5001479;28;6795;-75
2022/05/07 12:58:36;;;;;;;;;;;;;;;36.34;21.37;101112.75;5002421;28;7910;-77
2022/05/07 13:01:02;;;;;;;;;;;;;;;36.17;21.52;101119.81;4998410;28;6804;-75
2022/05/07 13:03:28;;;;;;;;;;;;;;;35.84;20.96;101116.00;4985660;28;8117;-75
2022/05/07 13:05:54;;;;;;;;;;;;;;;35.58;21.45;101126.06;5004562;28;6953;-75
2022/05/07 13:08:20;;;;;;;;;;;;;;;35.29;21.42;101125.56;5001265;28;6823;-75
2022/05/07 13:10:46;;;;;;;;;;;;;;;34.94;22.30;101119.97;5000463;28;6788;-75
2022/05/07 13:13:12;;;;;;;;;;;;;;;34.75;21.99;101125.25;5003540;28;7207;-75
2022/05/07 13:15:37;;;;;;;;;;;;;;;34.72;22.59;101120.91;5002536;28;7264;-75
2022/05/07 13:18:04;;;;;;;;;;;;;;;34.30;22.19;101119.09;5002708;28;6983;-75
2022/05/07 13:20:30;;;;;;;;;;;;;;;33.52;22.38;101122.06;5003325;28;6828;-75
2022/05/07 13:22:56;;;;;;;;;;;;;;;33.09;22.94;101119.16;5002979;28;7301;-75
2022/05/07 13:25:23;;;;;;;;;;;;;;;33.17;23.51;101118.88;4997592;28;7172;-75
2022/05/07 13:27:49;;;;;;;;;;;;;;;33.36;23.27;101122.59;4998699;28;7290;-75
2022/05/07 13:30:17;;;;;;;;;;;;;;;33.69;23.25;101112.56;4999544;28;7444;-75
2022/05/07 13:32:46;;;;;;;;;;;;;;;34.07;23.25;101112.88;4985067;28;6811;-75